createdAt,value
2022-11-29T00:01:01.556Z,9.55
2022-11-29T00:03:28.994Z,10.65
2022-11-29T00:05:56.155Z,9.27
2022-11-29T00:08:23.996Z,9.40
2022-11-29T00:10:50.937Z,10.02
2022-11-29T00:13:18.388Z,9.07
2022-11-29T00:15:45.113Z,9.73
2022-11-29T00:18:12.074Z,9.37
2022-11-29T00:20:39.656Z,8.40
2022-11-29T00:23:06.499Z,8.90
2022-11-29T00:25:33.398Z,9.57
2022-11-29T00:28:00.209Z,9.65
2022-11-29T00:30:28.137Z,8.77
2022-11-29T00:32:55.090Z,8.90
2022-11-29T00:35:21.781Z,9.00
2022-11-29T00:37:48.609Z,9.57
2022-11-29T00:40:15.348Z,9.23
2022-11-29T00:42:42.129Z,9.47
2022-11-29T00:45:09.361Z,8.40
2022-11-29T00:47:36.189Z,9.00
2022-11-29T00:50:03.705Z,8.63
2022-11-29T00:52:30.531Z,8.93
2022-11-29T00:54:57.303Z,9.50
2022-11-29T00:57:24.137Z,8.63
2022-11-29T00:59:50.873Z,9.77
2022-11-29T01:02:17.642Z,8.73
2022-11-29T01:04:44.800Z,8.70
2022-11-29T01:07:11.853Z,8.90
2022-11-29T01:09:38.622Z,9.23
2022-11-29T01:12:05.495Z,8.55
2022-11-29T01:14:32.517Z,9.32
2022-11-29T01:16:59.366Z,8.98
2022-11-29T01:19:26.168Z,8.60
2022-11-29T01:21:52.951Z,9.63
2022-11-29T01:24:19.782Z,9.27
2022-11-29T01:26:46.591Z,9.10
2022-11-29T01:29:13.827Z,9.20
2022-11-29T01:31:40.602Z,8.33
2022-11-29T01:34:07.740Z,9.20
2022-11-29T01:36:35.373Z,8.27
2022-11-29T01:39:05.241Z,8.93
2022-11-29T01:41:35.003Z,8.45
2022-11-29T01:44:26.882Z,8.70
2022-11-29T01:46:54.844Z,8.32
2022-11-29T01:49:28.181Z,8.18
2022-11-29T01:52:18.797Z,8.23
2022-11-29T01:54:50.304Z,8.60
2022-11-29T01:57:18.600Z,8.53
2022-11-29T01:59:52.556Z,8.95
2022-11-29T02:02:29.424Z,8.27
2022-11-29T02:04:59.035Z,8.60
2022-11-29T02:07:25.955Z,9.07
2022-11-29T02:09:53.018Z,8.13
2022-11-29T02:12:38.164Z,8.32
2022-11-29T02:15:36.067Z,8.23
2022-11-29T02:18:08.290Z,8.00
2022-11-29T02:20:59.560Z,7.65
2022-11-29T02:24:02.114Z,8.17
2022-11-29T02:26:40.677Z,8.15
2022-11-29T02:29:30.049Z,7.47
2022-11-29T02:32:34.359Z,7.00
2022-11-29T02:35:16.040Z,7.65
2022-11-29T02:38:11.270Z,8.47
2022-11-29T02:41:04.509Z,7.57
2022-11-29T02:43:58.940Z,8.65
2022-11-29T02:46:55.319Z,7.90
2022-11-29T02:49:45.550Z,8.25
2022-11-29T02:52:25.220Z,8.20
2022-11-29T02:55:15.381Z,7.85
2022-11-29T02:58:02.406Z,7.78
2022-11-29T03:00:35.992Z,7.70
2022-11-29T03:03:08.696Z,8.20
2022-11-29T03:05:53.541Z,7.97
2022-11-29T03:08:35.740Z,8.07
2022-11-29T03:11:26.664Z,8.48
2022-11-29T03:14:25.805Z,8.38
2022-11-29T03:17:20.240Z,8.23
2022-11-29T03:20:01.108Z,8.30
2022-11-29T03:22:30.662Z,8.65
2022-11-29T03:25:00.359Z,8.70
2022-11-29T03:27:31.304Z,8.30
2022-11-29T03:30:02.436Z,8.02
2022-11-29T03:33:02.795Z,8.50
2022-11-29T03:35:58.452Z,8.73
2022-11-29T03:38:45.000Z,8.30
2022-11-29T03:41:28.798Z,7.93
2022-11-29T03:44:03.450Z,8.13
2022-11-29T03:46:46.589Z,8.70
2022-11-29T03:49:38.348Z,8.50
2022-11-29T03:52:32.133Z,8.80
2022-11-29T03:55:32.337Z,8.02
2022-11-29T03:58:20.568Z,8.10
2022-11-29T04:00:50.290Z,9.23
2022-11-29T04:03:25.951Z,8.80
2022-11-29T04:06:13.843Z,8.23
2022-11-29T04:09:27.311Z,8.25
2022-11-29T04:12:12.071Z,8.60
2022-11-29T04:14:53.804Z,8.00
2022-11-29T04:17:49.062Z,8.13
2022-11-29T04:20:55.665Z,7.95
2022-11-29T04:23:47.195Z,7.80
2022-11-29T04:26:22.623Z,8.63
2022-11-29T04:28:55.132Z,8.90
2022-11-29T04:31:52.758Z,9.02
2022-11-29T04:34:37.648Z,8.38
2022-11-29T04:37:31.887Z,8.65
2022-11-29T04:40:20.387Z,8.70
2022-11-29T04:43:24.566Z,7.70
2022-11-29T04:46:03.495Z,8.73
2022-11-29T04:49:04.113Z,8.23
2022-11-29T04:51:30.839Z,8.15
2022-11-29T04:53:57.551Z,8.70
2022-11-29T04:56:32.987Z,8.17
2022-11-29T04:59:19.547Z,8.05
2022-11-29T05:02:05.789Z,8.65
2022-11-29T05:05:19.929Z,8.70
2022-11-29T05:07:59.724Z,8.75
2022-11-29T05:10:33.883Z,8.40
2022-11-29T05:13:32.743Z,7.80
2022-11-29T05:16:14.755Z,8.48
2022-11-29T05:18:56.787Z,8.27
2022-11-29T05:21:47.903Z,8.55
2022-11-29T05:24:20.624Z,9.33
2022-11-29T05:27:21.476Z,8.73
2022-11-29T05:29:56.862Z,9.32
2022-11-29T05:32:57.984Z,8.68
2022-11-29T05:35:51.186Z,9.32
2022-11-29T05:38:17.977Z,9.80
2022-11-29T05:41:00.225Z,9.32
2022-11-29T05:44:04.168Z,10.18
2022-11-29T05:46:43.089Z,9.55
2022-11-29T05:49:38.533Z,9.73
2022-11-29T05:52:24.919Z,9.50
2022-11-29T05:55:17.368Z,10.35
2022-11-29T05:57:55.476Z,10.27
2022-11-29T06:00:22.828Z,9.65
2022-11-29T06:03:03.305Z,10.10
2022-11-29T06:05:59.280Z,10.00
2022-11-29T06:08:40.153Z,9.93
2022-11-29T06:11:17.538Z,10.52
2022-11-29T06:14:02.400Z,9.80
2022-11-29T06:16:50.759Z,9.85
2022-11-29T06:19:48.512Z,10.63
2022-11-29T06:22:42.573Z,9.70
2022-11-29T06:25:12.292Z,9.88
2022-11-29T06:28:13.875Z,10.10
2022-11-29T06:31:04.527Z,10.23
2022-11-29T06:34:02.877Z,10.93
2022-11-29T06:36:40.123Z,10.25
2022-11-29T06:39:09.193Z,10.65
2022-11-29T06:41:36.590Z,10.80
2022-11-29T06:44:04.202Z,10.07
2022-11-29T06:46:44.165Z,10.27
2022-11-29T06:49:32.457Z,10.63
2022-11-29T06:52:39.475Z,11.32
2022-11-29T06:55:24.037Z,10.85
2022-11-29T06:58:28.347Z,10.68
2022-11-29T07:01:11.136Z,10.47
2022-11-29T07:04:20.644Z,11.40
2022-11-29T07:06:47.681Z,11.20
2022-11-29T07:09:17.758Z,10.88
2022-11-29T07:11:46.268Z,11.15
2022-11-29T07:14:13.611Z,10.87
2022-11-29T07:16:46.275Z,11.05
2022-11-29T07:19:24.971Z,11.90
2022-11-29T07:22:14.990Z,12.10
2022-11-29T07:24:50.783Z,12.48
2022-11-29T07:27:35.895Z,10.83
2022-11-29T07:30:11.772Z,10.55
2022-11-29T07:33:14.834Z,11.32
2022-11-29T07:35:53.880Z,9.88
2022-11-29T07:39:08.434Z,11.05
2022-11-29T07:42:00.587Z,10.70
2022-11-29T07:44:44.741Z,10.40
2022-11-29T07:47:12.177Z,9.90
2022-11-29T07:49:38.976Z,10.35
2022-11-29T07:52:05.784Z,10.48
2022-11-29T07:54:32.664Z,11.30
2022-11-29T07:56:59.438Z,10.10
2022-11-29T07:59:26.174Z,10.05
2022-11-29T08:01:53.051Z,10.95
2022-11-29T08:04:19.896Z,10.25
2022-11-29T08:06:46.658Z,9.83
2022-11-29T08:09:13.478Z,10.00
2022-11-29T08:11:40.402Z,9.77
2022-11-29T08:14:07.215Z,10.02
2022-11-29T08:16:34.480Z,10.00
2022-11-29T08:19:01.434Z,10.53
2022-11-29T08:21:28.193Z,9.80
2022-11-29T08:23:55.003Z,10.68
2022-11-29T08:26:24.451Z,9.88
2022-11-29T08:28:56.253Z,10.73
2022-11-29T08:31:23.234Z,9.93
2022-11-29T08:33:50.031Z,10.02
2022-11-29T08:36:19.626Z,9.85
2022-11-29T08:38:47.637Z,10.23
2022-11-29T08:41:16.184Z,10.18
2022-11-29T08:43:43.856Z,10.13
2022-11-29T08:46:16.690Z,9.98
2022-11-29T08:48:45.318Z,9.65
2022-11-29T08:51:12.141Z,9.75
2022-11-29T08:53:38.870Z,10.10
2022-11-29T08:56:31.768Z,10.03
2022-11-29T08:58:52.588Z,9.43
2022-11-29T09:01:20.068Z,10.00
2022-11-29T09:03:47.170Z,11.00
2022-11-29T09:06:15.531Z,9.48
2022-11-29T09:08:43.240Z,10.17
2022-11-29T09:11:21.074Z,10.32
2022-11-29T09:13:50.533Z,9.82
2022-11-29T09:16:20.915Z,9.20
2022-11-29T09:18:51.680Z,9.23
2022-11-29T09:21:19.603Z,9.67
2022-11-29T09:23:46.757Z,9.57
2022-11-29T09:26:18.698Z,10.07
2022-11-29T09:28:48.876Z,10.30
2022-11-29T09:31:16.685Z,9.13
2022-11-29T09:33:43.522Z,9.30
2022-11-29T09:36:11.517Z,9.25
2022-11-29T09:38:39.026Z,9.75
2022-11-29T09:41:21.097Z,8.90
2022-11-29T09:44:17.808Z,9.43
2022-11-29T09:46:58.819Z,9.43
2022-11-29T09:50:03.317Z,8.95
2022-11-29T09:53:17.722Z,8.77
2022-11-29T09:56:09.147Z,8.68
2022-11-29T09:58:57.594Z,8.82
2022-11-29T10:01:30.458Z,8.37
2022-11-29T10:04:02.599Z,7.90
2022-11-29T10:06:35.383Z,8.18
2022-11-29T10:09:14.591Z,7.93
2022-11-29T10:11:53.440Z,8.02
2022-11-29T10:14:27.167Z,7.90
2022-11-29T10:17:18.246Z,8.25
2022-11-29T10:19:50.062Z,8.40
2022-11-29T10:22:31.295Z,8.07
2022-11-29T10:25:01.579Z,8.60
2022-11-29T10:27:29.628Z,7.83
2022-11-29T10:29:58.883Z,7.70
2022-11-29T10:32:29.159Z,8.57
2022-11-29T10:34:55.945Z,8.05
2022-11-29T10:37:24.329Z,8.38
2022-11-29T10:39:59.310Z,8.40
2022-11-29T10:42:29.018Z,8.07
2022-11-29T10:44:56.389Z,8.40
2022-11-29T10:47:23.215Z,8.68
2022-11-29T10:49:50.080Z,8.45
2022-11-29T10:52:20.489Z,8.33
2022-11-29T10:54:49.795Z,8.40
2022-11-29T10:57:22.382Z,7.72
2022-11-29T11:00:02.924Z,8.10
2022-11-29T11:02:30.781Z,7.78
2022-11-29T11:04:58.944Z,8.70
2022-11-29T11:07:36.346Z,7.80
2022-11-29T11:10:06.307Z,8.05
2022-11-29T11:12:34.761Z,7.75
2022-11-29T11:15:24.960Z,8.10
2022-11-29T11:18:07.469Z,7.87
2022-11-29T11:20:41.756Z,7.70
2022-11-29T11:23:30.843Z,7.82
2022-11-29T11:26:09.175Z,7.72
2022-11-29T11:28:42.151Z,7.80
2022-11-29T11:31:11.537Z,7.60
2022-11-29T11:33:43.153Z,7.57
2022-11-29T11:36:13.130Z,6.80
2022-11-29T11:38:54.425Z,6.93
2022-11-29T11:41:31.876Z,7.88
2022-11-29T11:44:02.514Z,8.17
2022-11-29T11:46:50.105Z,7.57
2022-11-29T11:49:31.303Z,7.78
2022-11-29T11:52:00.636Z,8.05
2022-11-29T11:54:29.375Z,8.23
2022-11-29T11:56:56.576Z,7.30
2022-11-29T11:59:26.225Z,7.38
2022-11-29T12:01:53.369Z,7.25
2022-11-29T12:04:35.715Z,7.63
2022-11-29T12:07:09.288Z,6.75
2022-11-29T12:09:42.378Z,7.20
2022-11-29T12:12:26.083Z,7.13
2022-11-29T12:14:56.579Z,7.10
2022-11-29T12:17:38.320Z,7.32
2022-11-29T12:20:44.715Z,7.55
2022-11-29T12:23:11.454Z,7.20
2022-11-29T12:25:51.942Z,7.00
2022-11-29T12:28:21.095Z,7.00
2022-11-29T12:31:11.383Z,6.70
2022-11-29T12:34:06.005Z,6.90
2022-11-29T12:37:06.775Z,6.70
2022-11-29T12:39:42.306Z,6.55
2022-11-29T12:42:27.735Z,7.10
2022-11-29T12:45:00.618Z,6.50
2022-11-29T12:47:47.483Z,6.97
2022-11-29T12:50:23.235Z,6.60
2022-11-29T12:53:24.022Z,6.53
2022-11-29T12:56:25.594Z,6.53
2022-11-29T12:59:04.265Z,5.88
2022-11-29T13:01:30.991Z,5.78
2022-11-29T13:04:11.741Z,5.60
2022-11-29T13:07:05.611Z,5.82
2022-11-29T13:09:44.864Z,6.00
2022-11-29T13:12:17.364Z,5.15
2022-11-29T13:14:50.289Z,5.90
2022-11-29T13:18:10.129Z,4.97
2022-11-29T13:20:45.592Z,4.50
2022-11-29T13:23:15.171Z,5.43
2022-11-29T13:25:45.520Z,5.13
2022-11-29T13:28:25.643Z,5.68
2022-11-29T13:30:55.256Z,5.60
2022-11-29T13:33:30.916Z,5.65
2022-11-29T13:36:34.194Z,5.30
2022-11-29T13:39:34.724Z,5.13
2022-11-29T13:42:24.783Z,5.57
2022-11-29T13:45:04.438Z,5.20
2022-11-29T13:47:31.428Z,5.32
2022-11-29T13:50:00.400Z,5.90
2022-11-29T13:52:47.305Z,5.70
2022-11-29T13:55:13.982Z,5.18
2022-11-29T13:58:28.474Z,5.67
2022-11-29T14:01:01.560Z,5.90
2022-11-29T14:03:36.013Z,6.05
2022-11-29T14:06:10.773Z,6.22
2022-11-29T14:09:17.765Z,5.75
2022-11-29T14:11:42.410Z,5.70
2022-11-29T14:14:17.173Z,5.93
2022-11-29T14:16:44.222Z,6.10
2022-11-29T14:19:10.943Z,5.95
2022-11-29T14:21:56.208Z,5.10
2022-11-29T14:24:54.965Z,5.63
2022-11-29T14:27:21.701Z,5.68
2022-11-29T14:29:48.418Z,5.63
2022-11-29T14:32:27.147Z,5.50
2022-11-29T14:35:02.920Z,5.35
2022-11-29T14:37:37.324Z,5.50
2022-11-29T14:40:18.117Z,5.32
2022-11-29T14:42:48.517Z,5.60
2022-11-29T14:45:24.683Z,5.47
2022-11-29T14:47:53.339Z,5.90
2022-11-29T14:50:34.190Z,5.20
2022-11-29T14:53:02.151Z,5.85
2022-11-29T14:55:32.892Z,5.70
2022-11-29T14:58:02.391Z,5.60
2022-11-29T15:00:42.840Z,5.82
2022-11-29T15:03:18.323Z,5.47
2022-11-29T15:06:07.018Z,6.40
2022-11-29T15:08:52.830Z,6.40
2022-11-29T15:11:35.581Z,6.25
2022-11-29T15:14:19.406Z,7.53
2022-11-29T15:17:04.056Z,7.60
2022-11-29T15:20:05.738Z,7.35
2022-11-29T15:22:51.798Z,8.43
2022-11-29T15:25:22.988Z,8.32
2022-11-29T15:27:54.791Z,7.72
2022-11-29T15:30:35.559Z,8.57
2022-11-29T15:33:06.367Z,8.80
2022-11-29T15:35:35.186Z,8.23
2022-11-29T15:38:02.479Z,8.65
2022-11-29T15:40:31.626Z,8.38
2022-11-29T15:43:21.883Z,8.33
2022-11-29T15:45:53.775Z,8.10
2022-11-29T15:48:26.413Z,8.02
2022-11-29T15:51:17.584Z,8.80
2022-11-29T15:54:00.405Z,9.02
2022-11-29T15:56:50.855Z,8.83
2022-11-29T15:59:39.212Z,8.73
2022-11-29T16:02:28.036Z,8.15
2022-11-29T16:05:03.104Z,8.93
2022-11-29T16:07:31.170Z,9.02
2022-11-29T16:10:03.818Z,8.07
2022-11-29T16:12:53.358Z,8.70
2022-11-29T16:15:33.153Z,8.77
2022-11-29T16:18:12.637Z,8.63
2022-11-29T16:20:41.167Z,8.35
2022-11-29T16:23:08.245Z,8.50
2022-11-29T16:25:53.829Z,7.97
2022-11-29T16:28:21.288Z,8.50
2022-11-29T16:30:48.809Z,8.65
2022-11-29T16:33:23.661Z,9.70
2022-11-29T16:35:51.598Z,8.57
2022-11-29T16:38:21.808Z,8.80
2022-11-29T16:41:20.899Z,8.75
2022-11-29T16:43:52.164Z,8.90
2022-11-29T16:46:21.919Z,8.25
2022-11-29T16:48:57.016Z,8.80
2022-11-29T16:51:29.553Z,9.00
2022-11-29T16:54:22.946Z,8.85
2022-11-29T16:56:55.574Z,8.65
2022-11-29T16:59:28.081Z,8.57
2022-11-29T17:01:57.153Z,9.03
2022-11-29T17:04:25.377Z,8.57
2022-11-29T17:06:54.349Z,8.65
2022-11-29T17:09:27.866Z,9.00
2022-11-29T17:11:56.531Z,7.88
2022-11-29T17:14:23.492Z,9.63
2022-11-29T17:16:50.909Z,9.55
2022-11-29T17:19:22.195Z,9.32
2022-11-29T17:21:50.419Z,8.80
2022-11-29T17:24:20.202Z,9.43
2022-11-29T17:26:47.429Z,9.37
2022-11-29T17:29:16.580Z,10.15
2022-11-29T17:31:45.186Z,9.70
2022-11-29T17:34:13.571Z,9.77
2022-11-29T17:36:40.354Z,10.18
2022-11-29T17:39:08.047Z,10.13
2022-11-29T17:41:36.107Z,9.98
2022-11-29T17:44:04.622Z,10.68
2022-11-29T17:46:34.848Z,9.98
2022-11-29T17:49:04.783Z,10.25
2022-11-29T17:54:21.528Z,10.23
2022-11-29T17:56:48.758Z,10.70
2022-11-29T17:59:16.515Z,11.38
2022-11-29T18:01:43.866Z,10.77
2022-11-29T18:04:12.159Z,11.27
2022-11-29T18:06:42.388Z,10.93
2022-11-29T18:09:12.371Z,10.15
2022-11-29T18:11:47.723Z,10.23
2022-11-29T18:14:25.928Z,9.77
2022-11-29T18:16:53.361Z,9.87
2022-11-29T18:19:22.698Z,9.98
2022-11-29T18:21:51.654Z,10.32
2022-11-29T18:24:20.242Z,9.70
2022-11-29T18:26:47.932Z,10.52
2022-11-29T18:29:15.660Z,10.30
2022-11-29T18:31:45.584Z,9.80
2022-11-29T18:34:14.627Z,10.20
2022-11-29T18:36:45.252Z,9.77
2022-11-29T18:39:18.371Z,10.27
2022-11-29T18:41:51.286Z,10.63
2022-11-29T18:44:20.866Z,9.57
2022-11-29T18:46:48.621Z,10.57
2022-11-29T18:49:18.274Z,10.50
2022-11-29T18:51:47.246Z,10.18
2022-11-29T18:54:16.487Z,10.63
2022-11-29T18:56:45.777Z,11.32
2022-11-29T18:59:15.950Z,11.35
2022-11-29T19:01:45.491Z,12.10
2022-11-29T19:04:17.303Z,11.10
2022-11-29T19:06:46.619Z,11.77
2022-11-29T19:09:17.912Z,11.35
2022-11-29T19:11:45.771Z,11.38
2022-11-29T19:14:13.718Z,10.15
2022-11-29T19:16:47.382Z,10.77
2022-11-29T19:19:16.570Z,10.43
2022-11-29T19:21:45.378Z,10.15
2022-11-29T19:24:15.288Z,10.90
2022-11-29T19:26:46.194Z,11.05
2022-11-29T19:29:14.975Z,10.77
2022-11-29T19:31:47.181Z,10.50
2022-11-29T19:34:15.370Z,10.93
2022-11-29T19:36:44.557Z,11.30
2022-11-29T19:39:17.311Z,10.80
2022-11-29T19:41:47.820Z,10.85
2022-11-29T19:44:15.985Z,10.47
2022-11-29T19:46:46.324Z,10.82
2022-11-29T19:49:14.577Z,10.57
2022-11-29T19:51:45.299Z,11.13
2022-11-29T19:54:14.468Z,11.40
2022-11-29T19:56:42.721Z,11.47
2022-11-29T19:59:16.750Z,11.30
2022-11-29T20:01:45.512Z,11.88
2022-11-29T20:04:14.331Z,11.85
2022-11-29T20:06:42.629Z,11.10
2022-11-29T20:09:13.914Z,11.63
2022-11-29T20:11:43.339Z,12.05
2022-11-29T20:14:14.022Z,10.70
2022-11-29T20:16:42.267Z,11.43
2022-11-29T20:19:13.949Z,12.15
2022-11-29T20:21:50.582Z,11.73
2022-11-29T20:24:19.277Z,12.88
2022-11-29T20:26:49.965Z,13.20
2022-11-29T20:29:21.820Z,13.20
2022-11-29T20:31:51.345Z,12.60
2022-11-29T20:34:21.613Z,12.20
2022-11-29T20:37:15.725Z,11.85
2022-11-29T20:39:55.883Z,12.77
2022-11-29T20:42:48.874Z,12.82
2022-11-29T20:45:18.272Z,12.30
2022-11-29T20:47:57.209Z,12.57
2022-11-29T20:50:31.119Z,11.93
2022-11-29T20:53:08.584Z,12.15
2022-11-29T20:55:36.463Z,11.95
2022-11-29T20:58:10.320Z,13.05
2022-11-29T21:00:39.007Z,12.13
2022-11-29T21:03:06.569Z,11.98
2022-11-29T21:05:34.366Z,13.13
2022-11-29T21:08:07.073Z,12.02
2022-11-29T21:10:36.008Z,12.25
2022-11-29T21:13:04.719Z,12.63
2022-11-29T21:15:32.550Z,12.15
2022-11-29T21:18:01.011Z,12.13
2022-11-29T21:20:28.709Z,12.48
2022-11-29T21:23:34.804Z,11.95
2022-11-29T21:26:07.646Z,13.50
2022-11-29T21:28:38.232Z,12.73
2022-11-29T21:31:05.989Z,12.80
2022-11-29T21:33:33.424Z,12.30
2022-11-29T21:36:00.428Z,12.60
2022-11-29T21:38:27.696Z,12.20
2022-11-29T21:40:54.456Z,12.80
2022-11-29T21:43:28.735Z,12.43
2022-11-29T21:46:08.617Z,14.27
2022-11-29T21:48:35.464Z,13.40
2022-11-29T21:51:06.761Z,11.87
2022-11-29T21:53:35.710Z,12.73
2022-11-29T21:56:05.701Z,12.32
2022-11-29T21:58:34.676Z,12.77
2022-11-29T22:01:16.705Z,13.00
2022-11-29T22:03:44.438Z,13.10
2022-11-29T22:06:13.459Z,14.70
2022-11-29T22:08:41.398Z,14.25
2022-11-29T22:11:11.879Z,13.18
2022-11-29T22:13:40.339Z,13.75
2022-11-29T22:16:09.595Z,13.80
2022-11-29T22:18:37.852Z,12.25
2022-11-29T22:21:06.790Z,13.73
2022-11-29T22:23:34.245Z,12.77
2022-11-29T22:26:05.397Z,13.60
2022-11-29T22:28:32.534Z,13.53
2022-11-29T22:31:05.385Z,13.57
2022-11-29T22:33:33.096Z,13.70
2022-11-29T22:36:05.092Z,13.32
2022-11-29T22:38:32.093Z,13.20
2022-11-29T22:41:05.085Z,13.17
2022-11-29T22:43:33.588Z,13.43
2022-11-29T22:46:08.138Z,13.35
2022-11-29T22:48:39.096Z,12.80
2022-11-29T22:51:12.077Z,13.20
2022-11-29T22:53:40.951Z,13.53
2022-11-29T22:56:10.539Z,13.65
2022-11-29T22:58:37.429Z,13.73
2022-11-29T23:01:19.098Z,13.18
2022-11-29T23:03:48.599Z,13.55
2022-11-29T23:06:18.545Z,12.87
2022-11-29T23:08:47.481Z,13.32
2022-11-29T23:11:17.099Z,13.55
2022-11-29T23:13:44.739Z,13.73
2022-11-29T23:16:14.685Z,13.60
2022-11-29T23:18:41.770Z,12.63
2022-11-29T23:21:11.585Z,13.23
2022-11-29T23:23:38.613Z,13.50
2022-11-29T23:26:07.154Z,13.00
2022-11-29T23:28:35.855Z,13.52
2022-11-29T23:31:02.757Z,13.60
2022-11-29T23:33:29.554Z,14.02
2022-11-29T23:36:02.094Z,13.40
2022-11-29T23:38:28.910Z,13.52
2022-11-29T23:40:55.826Z,13.77
2022-11-29T23:43:22.824Z,14.00
2022-11-29T23:45:50.466Z,14.00
2022-11-29T23:48:17.353Z,13.95
2022-11-29T23:50:44.112Z,14.68
2022-11-29T23:53:15.568Z,13.10
2022-11-29T23:55:42.680Z,13.57
2022-11-29T23:58:10.740Z,13.82
